createdAt,value
2022-08-03T00:01:36.014Z,66.39
2022-08-03T00:04:03.927Z,66.05
2022-08-03T00:06:36.488Z,66.53
2022-08-03T00:09:05.064Z,66.79
2022-08-03T00:11:32.168Z,66.60
2022-08-03T00:13:59.158Z,66.82
2022-08-03T00:16:26.654Z,67.20
2022-08-03T00:18:53.587Z,67.11
2022-08-03T00:21:21.141Z,67.12
2022-08-03T00:23:51.447Z,67.00
2022-08-03T00:26:18.945Z,67.26
2022-08-03T00:28:49.864Z,68.02
2022-08-03T00:31:16.830Z,68.21
2022-08-03T00:33:59.046Z,67.90
2022-08-03T00:36:28.518Z,68.21
2022-08-03T00:38:56.469Z,68.58
2022-08-03T00:41:23.487Z,68.50
2022-08-03T00:43:51.202Z,68.94
2022-08-03T00:46:21.749Z,69.17
2022-08-03T00:48:53.573Z,69.06
2022-08-03T00:51:21.098Z,69.74
2022-08-03T00:53:48.035Z,69.55
2022-08-03T00:56:16.345Z,69.92
2022-08-03T00:58:46.904Z,70.29
2022-08-03T01:01:14.659Z,69.85
2022-08-03T01:03:41.856Z,70.34
2022-08-03T01:06:21.180Z,70.27
2022-08-03T01:08:58.822Z,70.11
2022-08-03T01:11:59.826Z,70.40
2022-08-03T01:14:38.916Z,69.79
2022-08-03T01:17:10.623Z,70.04
2022-08-03T01:19:40.399Z,70.66
2022-08-03T01:22:22.493Z,70.36
2022-08-03T01:25:27.042Z,70.02
2022-08-03T01:28:16.004Z,70.81
2022-08-03T01:30:44.669Z,70.63
2022-08-03T01:33:22.870Z,70.38
2022-08-03T01:36:01.084Z,70.54
2022-08-03T01:38:33.475Z,70.60
2022-08-03T01:41:06.426Z,70.96
2022-08-03T01:44:27.760Z,71.21
2022-08-03T01:46:23.261Z,70.56
2022-08-03T01:48:50.781Z,70.95
2022-08-03T01:51:19.775Z,71.09
2022-08-03T01:53:47.339Z,71.25
2022-08-03T01:56:14.888Z,71.32
2022-08-03T01:58:42.692Z,71.17
2022-08-03T02:01:10.811Z,71.33
2022-08-03T02:03:58.074Z,71.66
2022-08-03T02:07:00.031Z,71.61
2022-08-03T02:09:15.139Z,71.64
2022-08-03T02:11:42.409Z,71.56
2022-08-03T02:14:09.691Z,71.65
2022-08-03T02:16:37.733Z,72.07
2022-08-03T02:19:06.656Z,72.08
2022-08-03T02:21:56.785Z,72.49
2022-08-03T02:24:22.953Z,72.10
2022-08-03T02:26:49.936Z,71.99
2022-08-03T02:29:20.975Z,72.01
2022-08-03T02:32:08.798Z,72.32
2022-08-03T02:34:35.737Z,72.52
2022-08-03T02:37:03.920Z,72.06
2022-08-03T02:39:31.615Z,72.83
2022-08-03T02:42:02.546Z,72.64
2022-08-03T02:44:32.708Z,72.65
2022-08-03T02:47:02.525Z,72.71
2022-08-03T02:49:41.384Z,72.80
2022-08-03T02:52:16.982Z,72.66
2022-08-03T02:54:44.741Z,72.91
2022-08-03T02:57:11.786Z,73.43
2022-08-03T02:59:38.880Z,73.06
2022-08-03T03:02:05.876Z,73.18
2022-08-03T03:04:33.409Z,73.28
2022-08-03T03:07:01.808Z,73.18
2022-08-03T03:09:41.809Z,73.63
2022-08-03T03:12:11.197Z,73.55
2022-08-03T03:14:38.750Z,73.63
2022-08-03T03:17:10.017Z,73.65
2022-08-03T03:19:37.481Z,74.01
2022-08-03T03:22:04.421Z,74.33
2022-08-03T03:24:31.377Z,74.47
2022-08-03T03:26:58.372Z,74.18
2022-08-03T03:29:25.299Z,74.01
2022-08-03T03:31:52.364Z,74.27
2022-08-03T03:34:19.827Z,74.66
2022-08-03T03:36:47.247Z,74.48
2022-08-03T03:39:15.984Z,74.39
2022-08-03T03:41:43.577Z,74.11
2022-08-03T03:44:10.528Z,74.78
2022-08-03T03:46:38.402Z,74.78
2022-08-03T03:49:08.485Z,74.44
2022-08-03T03:51:35.551Z,74.42
2022-08-03T03:54:04.552Z,74.66
2022-08-03T03:56:31.703Z,74.37
2022-08-03T03:58:58.675Z,74.61
2022-08-03T04:01:25.818Z,75.15
2022-08-03T04:03:52.859Z,75.28
2022-08-03T04:06:38.361Z,75.37
2022-08-03T04:09:23.704Z,74.94
2022-08-03T04:11:52.773Z,75.31
2022-08-03T04:14:23.442Z,75.08
2022-08-03T04:16:55.201Z,75.40
2022-08-03T04:19:30.458Z,75.10
2022-08-03T04:22:00.594Z,75.35
2022-08-03T04:24:31.439Z,75.33
2022-08-03T04:26:58.885Z,75.15
2022-08-03T04:29:26.664Z,75.49
2022-08-03T04:31:54.365Z,75.57
2022-08-03T04:34:21.331Z,75.31
2022-08-03T04:36:50.944Z,75.68
2022-08-03T04:39:26.603Z,75.38
2022-08-03T04:42:04.373Z,75.25
2022-08-03T04:44:44.645Z,75.73
2022-08-03T04:47:11.685Z,75.16
2022-08-03T04:49:38.737Z,75.17
2022-08-03T04:52:07.838Z,75.19
2022-08-03T04:54:48.761Z,75.87
2022-08-03T04:57:22.036Z,75.44
2022-08-03T04:59:56.630Z,75.58
2022-08-03T05:02:28.556Z,75.67
2022-08-03T05:04:55.884Z,75.66
2022-08-03T05:07:24.844Z,75.67
2022-08-03T05:10:01.699Z,75.95
2022-08-03T05:12:32.755Z,75.71
2022-08-03T05:15:00.640Z,75.92
2022-08-03T05:17:28.484Z,75.95
2022-08-03T05:19:55.814Z,76.12
2022-08-03T05:22:23.101Z,76.06
2022-08-03T05:24:50.082Z,76.14
2022-08-03T05:27:19.849Z,75.90
2022-08-03T05:29:47.864Z,75.97
2022-08-03T05:32:15.837Z,76.10
2022-08-03T05:34:49.559Z,76.08
2022-08-03T05:37:16.542Z,75.76
2022-08-03T05:39:43.562Z,75.89
2022-08-03T05:42:10.915Z,76.27
2022-08-03T05:44:38.872Z,75.81
2022-08-03T05:47:06.067Z,76.05
2022-08-03T05:49:33.423Z,75.93
2022-08-03T05:52:13.226Z,76.00
2022-08-03T05:54:56.847Z,76.48
2022-08-03T05:57:25.653Z,76.31
2022-08-03T05:59:55.713Z,76.24
2022-08-03T06:02:28.705Z,76.09
2022-08-03T06:04:55.987Z,76.05
2022-08-03T06:07:23.022Z,76.19
2022-08-03T06:10:35.737Z,76.09
2022-08-03T06:12:37.269Z,76.27
2022-08-03T06:15:05.049Z,76.20
2022-08-03T06:17:37.310Z,75.91
2022-08-03T06:20:06.349Z,76.50
2022-08-03T06:22:33.369Z,76.40
2022-08-03T06:25:05.031Z,75.82
2022-08-03T06:27:37.638Z,75.90
2022-08-03T06:30:05.412Z,76.00
2022-08-03T06:32:32.392Z,75.98
2022-08-03T06:34:59.838Z,76.17
2022-08-03T06:37:27.272Z,75.64
2022-08-03T06:39:54.464Z,75.80
2022-08-03T06:42:22.658Z,75.56
2022-08-03T06:44:50.075Z,75.61
2022-08-03T06:47:17.363Z,75.61
2022-08-03T06:50:16.324Z,75.43
2022-08-03T06:52:38.110Z,75.23
2022-08-03T06:55:06.705Z,75.26
2022-08-03T06:57:33.859Z,74.81
2022-08-03T07:00:10.995Z,74.63
2022-08-03T07:02:40.175Z,74.69
2022-08-03T07:05:08.243Z,74.07
2022-08-03T07:07:35.368Z,73.87
2022-08-03T07:10:02.542Z,73.86
2022-08-03T07:12:30.165Z,73.46
2022-08-03T07:15:01.300Z,73.15
2022-08-03T07:17:31.088Z,73.13
2022-08-03T07:19:58.337Z,72.53
2022-08-03T07:22:25.540Z,72.12
2022-08-03T07:24:52.580Z,72.28
2022-08-03T07:27:22.182Z,72.27
2022-08-03T07:29:49.624Z,71.53
2022-08-03T07:32:17.027Z,71.65
2022-08-03T07:34:45.658Z,71.32
2022-08-03T07:37:16.002Z,70.72
2022-08-03T07:39:42.999Z,70.34
2022-08-03T07:42:10.090Z,70.28
2022-08-03T07:44:37.118Z,70.43
2022-08-03T07:47:04.417Z,70.18
2022-08-03T07:49:32.704Z,69.90
2022-08-03T07:52:18.814Z,69.65
2022-08-03T07:54:46.137Z,69.47
2022-08-03T07:57:13.082Z,68.97
2022-08-03T07:59:49.068Z,69.02
2022-08-03T08:02:24.328Z,69.04
2022-08-03T08:04:51.475Z,68.45
2022-08-03T08:07:18.419Z,68.54
2022-08-03T08:09:47.755Z,68.23
2022-08-03T08:12:15.973Z,68.26
2022-08-03T08:14:45.970Z,68.01
2022-08-03T08:17:13.427Z,67.56
2022-08-03T08:19:43.799Z,67.61
2022-08-03T08:22:15.758Z,67.43
2022-08-03T08:24:44.890Z,67.81
2022-08-03T08:27:12.806Z,67.60
2022-08-03T08:29:52.616Z,66.85
2022-08-03T08:32:23.529Z,67.20
2022-08-03T08:34:51.134Z,67.52
2022-08-03T08:37:18.209Z,67.01
2022-08-03T08:39:45.473Z,66.80
2022-08-03T08:42:13.054Z,66.51
2022-08-03T08:44:40.242Z,66.07
2022-08-03T08:47:07.291Z,66.03
2022-08-03T08:49:34.457Z,65.67
2022-08-03T08:52:01.783Z,65.88
2022-08-03T08:54:28.906Z,66.03
2022-08-03T08:56:56.049Z,65.78
2022-08-03T08:59:23.073Z,65.78
2022-08-03T09:01:50.122Z,65.46
2022-08-03T09:04:17.042Z,65.22
2022-08-03T09:06:58.715Z,64.97
2022-08-03T09:10:08.388Z,64.18
2022-08-03T09:12:39.179Z,64.40
2022-08-03T09:15:24.433Z,64.65
2022-08-03T09:17:52.724Z,64.28
2022-08-03T09:20:20.912Z,63.80
2022-08-03T09:23:09.732Z,63.78
2022-08-03T09:25:50.982Z,63.53
2022-08-03T09:28:53.876Z,62.89
2022-08-03T09:31:05.321Z,63.04
2022-08-03T09:33:35.954Z,63.31
2022-08-03T09:36:03.195Z,62.78
2022-08-03T09:38:30.379Z,62.17
2022-08-03T09:41:00.201Z,62.14
2022-08-03T09:43:27.962Z,61.62
2022-08-03T09:46:05.281Z,61.98
2022-08-03T09:48:36.929Z,61.44
2022-08-03T09:51:12.795Z,61.87
2022-08-03T09:53:59.204Z,62.03
2022-08-03T09:56:46.186Z,61.07
2022-08-03T09:59:27.680Z,60.88
2022-08-03T10:01:56.241Z,61.31
2022-08-03T10:04:23.695Z,60.64
2022-08-03T10:07:09.559Z,61.03
2022-08-03T10:09:37.993Z,60.23
2022-08-03T10:12:11.958Z,60.00
2022-08-03T10:14:40.129Z,59.73
2022-08-03T10:17:07.123Z,59.50
2022-08-03T10:19:34.395Z,59.41
2022-08-03T10:22:04.952Z,59.42
2022-08-03T10:24:33.909Z,59.11
2022-08-03T10:27:07.430Z,58.42
2022-08-03T10:29:39.867Z,58.54
2022-08-03T10:32:21.934Z,58.90
2022-08-03T10:34:49.005Z,58.60
2022-08-03T10:37:19.355Z,58.10
2022-08-03T10:39:55.617Z,58.09
2022-08-03T10:42:24.577Z,57.29
2022-08-03T10:45:02.862Z,58.03
2022-08-03T10:47:30.537Z,57.44
2022-08-03T10:49:57.809Z,56.88
2022-08-03T10:52:31.944Z,57.45
2022-08-03T10:55:20.671Z,57.28
2022-08-03T10:57:58.496Z,56.53
2022-08-03T11:00:27.549Z,57.08
2022-08-03T11:03:09.564Z,56.63
2022-08-03T11:05:41.548Z,55.69
2022-08-03T11:08:26.312Z,55.16
2022-08-03T11:10:58.150Z,54.85
2022-08-03T11:13:26.412Z,55.75
2022-08-03T11:16:02.257Z,55.23
2022-08-03T11:18:30.881Z,55.04
2022-08-03T11:20:59.804Z,54.62
2022-08-03T11:24:03.240Z,54.45
2022-08-03T11:26:33.176Z,54.14
2022-08-03T11:29:29.196Z,53.26
2022-08-03T11:31:56.253Z,53.13
2022-08-03T11:34:24.812Z,53.67
2022-08-03T11:37:22.983Z,52.91
2022-08-03T11:39:53.082Z,53.02
2022-08-03T11:42:23.432Z,52.88
2022-08-03T11:44:51.317Z,52.33
2022-08-03T11:47:18.710Z,52.57
2022-08-03T11:49:47.615Z,51.78
2022-08-03T11:52:18.161Z,50.79
2022-08-03T11:54:48.873Z,49.83
2022-08-03T11:59:13.118Z,48.34
2022-08-03T12:00:26.053Z,48.28
2022-08-03T12:03:00.918Z,47.98
2022-08-03T12:05:54.787Z,47.58
2022-08-03T12:08:32.548Z,48.10
2022-08-03T12:11:01.440Z,47.31
2022-08-03T12:14:45.802Z,46.95
2022-08-03T12:16:26.456Z,46.76
2022-08-03T12:19:03.900Z,46.17
2022-08-03T12:21:31.156Z,45.46
2022-08-03T12:24:00.662Z,44.80
2022-08-03T12:26:31.793Z,44.25
2022-08-03T12:28:58.816Z,44.76
2022-08-03T12:31:25.798Z,44.31
2022-08-03T12:34:03.303Z,43.83
2022-08-03T12:36:33.011Z,44.05
2022-08-03T12:39:07.636Z,43.42
2022-08-03T12:41:38.979Z,43.17
2022-08-03T12:44:06.927Z,42.73
2022-08-03T12:46:47.700Z,43.73
2022-08-03T12:49:17.412Z,42.88
2022-08-03T12:51:47.559Z,43.03
2022-08-03T12:54:25.084Z,42.93
2022-08-03T12:57:07.119Z,43.50
2022-08-03T12:59:52.660Z,43.04
2022-08-03T13:02:25.842Z,43.16
2022-08-03T13:04:54.820Z,42.48
2022-08-03T13:07:25.113Z,42.20
2022-08-03T13:09:54.939Z,42.36
2022-08-03T13:12:23.422Z,42.21
2022-08-03T13:14:52.195Z,42.35
2022-08-03T13:17:19.965Z,42.25
2022-08-03T13:19:48.189Z,41.80
2022-08-03T13:22:17.229Z,41.30
2022-08-03T13:24:45.799Z,40.97
2022-08-03T13:27:31.119Z,40.70
2022-08-03T13:30:04.130Z,41.00
2022-08-03T13:32:31.211Z,41.85
2022-08-03T13:34:58.204Z,41.34
2022-08-03T13:37:26.191Z,40.88
2022-08-03T13:39:59.369Z,40.93
2022-08-03T13:42:31.981Z,40.61
2022-08-03T13:44:59.724Z,40.93
2022-08-03T13:47:27.216Z,40.76
2022-08-03T13:50:01.279Z,41.52
2022-08-03T13:52:35.949Z,41.95
2022-08-03T13:55:07.167Z,42.14
2022-08-03T13:58:04.731Z,42.29
2022-08-03T14:00:29.374Z,41.95
2022-08-03T14:03:03.926Z,42.05
2022-08-03T14:05:34.699Z,42.03
2022-08-03T14:08:03.829Z,41.94
2022-08-03T14:10:31.400Z,42.10
2022-08-03T14:13:00.580Z,42.30
2022-08-03T14:15:28.859Z,42.62
2022-08-03T14:17:58.702Z,42.62
2022-08-03T14:20:38.070Z,42.71
2022-08-03T14:23:07.198Z,42.47
2022-08-03T14:25:49.885Z,42.43
2022-08-03T14:28:19.014Z,42.61
2022-08-03T14:30:46.278Z,42.78
2022-08-03T14:33:13.217Z,42.90
2022-08-03T14:35:40.337Z,43.21
2022-08-03T14:38:07.341Z,42.81
2022-08-03T14:40:34.304Z,42.81
2022-08-03T14:43:02.497Z,43.32
2022-08-03T14:45:29.566Z,43.26
2022-08-03T14:50:30.252Z,43.21
2022-08-03T14:50:50.335Z,42.92
2022-08-03T14:53:17.995Z,43.28
2022-08-03T14:55:50.636Z,42.74
2022-08-03T14:58:22.415Z,43.00
2022-08-03T15:00:50.999Z,42.69
2022-08-03T15:03:23.844Z,42.49
2022-08-03T15:05:56.056Z,43.30
2022-08-03T15:08:24.097Z,42.93
2022-08-03T15:10:51.343Z,43.31
2022-08-03T15:13:22.314Z,42.87
2022-08-03T15:15:50.115Z,43.49
2022-08-03T15:18:17.167Z,43.53
2022-08-03T15:20:45.915Z,43.30
2022-08-03T15:23:17.260Z,43.04
2022-08-03T15:26:31.581Z,43.01
2022-08-03T15:28:32.259Z,43.33
2022-08-03T15:30:59.376Z,43.35
2022-08-03T15:33:26.393Z,43.50
2022-08-03T15:35:53.647Z,43.49
2022-08-03T15:38:25.948Z,42.86
2022-08-03T15:40:57.058Z,42.72
2022-08-03T15:43:24.243Z,43.12
2022-08-03T15:46:12.669Z,43.05
2022-08-03T15:48:38.906Z,43.28
2022-08-03T15:51:06.203Z,43.15
2022-08-03T15:53:33.753Z,42.96
2022-08-03T15:56:03.337Z,42.68
2022-08-03T15:59:10.430Z,42.81
2022-08-03T16:01:25.440Z,43.26
2022-08-03T16:03:52.537Z,43.45
2022-08-03T16:06:19.978Z,43.64
2022-08-03T16:09:03.810Z,44.36
2022-08-03T16:11:30.761Z,44.51
2022-08-03T16:14:13.461Z,44.51
2022-08-03T16:16:44.951Z,44.31
2022-08-03T16:19:13.726Z,44.37
2022-08-03T16:21:48.293Z,44.22
2022-08-03T16:24:17.497Z,43.81
2022-08-03T16:26:52.810Z,44.28
2022-08-03T16:29:23.297Z,44.46
2022-08-03T16:31:54.419Z,44.44
2022-08-03T16:34:21.709Z,44.17
2022-08-03T16:36:48.674Z,44.42
2022-08-03T16:39:16.020Z,43.89
2022-08-03T16:41:54.564Z,44.04
2022-08-03T16:44:29.847Z,44.42
2022-08-03T16:46:57.172Z,44.53
2022-08-03T16:49:52.933Z,44.50
2022-08-03T16:52:12.831Z,44.77
2022-08-03T16:54:40.190Z,44.99
2022-08-03T16:57:07.656Z,45.03
2022-08-03T16:59:36.968Z,44.92
2022-08-03T17:02:09.930Z,44.84
2022-08-03T17:04:40.104Z,45.17
2022-08-03T17:07:07.685Z,45.22
2022-08-03T17:09:38.822Z,45.15
2022-08-03T17:12:07.209Z,44.75
2022-08-03T17:14:34.218Z,44.62
2022-08-03T17:17:04.159Z,44.83
2022-08-03T17:19:32.385Z,44.73
2022-08-03T17:22:03.990Z,44.40
2022-08-03T17:24:34.396Z,44.67
2022-08-03T17:27:08.543Z,44.76
2022-08-03T17:29:38.794Z,45.00
2022-08-03T17:32:17.918Z,44.55
2022-08-03T17:34:50.018Z,44.63
2022-08-03T17:37:27.042Z,44.78
2022-08-03T17:40:05.090Z,45.09
2022-08-03T17:42:33.246Z,45.51
2022-08-03T17:45:03.757Z,45.50
2022-08-03T17:47:42.653Z,45.50
2022-08-03T17:50:25.302Z,45.77
2022-08-03T17:53:07.402Z,45.60
2022-08-03T17:55:52.026Z,46.51
2022-08-03T17:58:33.242Z,46.60
2022-08-03T18:01:59.981Z,47.07
2022-08-03T18:04:10.787Z,47.43
2022-08-03T18:06:56.434Z,47.06
2022-08-03T18:10:03.527Z,47.44
2022-08-03T18:12:15.108Z,47.89
2022-08-03T18:14:57.908Z,47.50
2022-08-03T18:17:55.932Z,47.81
2022-08-03T18:20:34.089Z,47.83
2022-08-03T18:23:07.073Z,47.21
2022-08-03T18:25:45.263Z,47.71
2022-08-03T18:28:18.741Z,48.04
2022-08-03T18:30:54.176Z,47.63
2022-08-03T18:34:17.078Z,47.81
2022-08-03T18:36:21.619Z,47.70
2022-08-03T18:38:51.954Z,48.01
2022-08-03T18:41:32.276Z,48.47
2022-08-03T18:44:08.242Z,48.63
2022-08-03T18:46:46.120Z,49.01
2022-08-03T18:49:31.839Z,48.81
2022-08-03T18:52:12.177Z,49.06
2022-08-03T18:55:02.761Z,49.56
2022-08-03T18:57:55.639Z,49.73
2022-08-03T19:00:24.454Z,49.72
2022-08-03T19:03:06.062Z,49.63
2022-08-03T19:05:52.930Z,50.28
2022-08-03T19:08:30.253Z,50.17
2022-08-03T19:11:00.786Z,49.83
2022-08-03T19:13:38.639Z,50.49
2022-08-03T19:16:14.182Z,50.80
2022-08-03T19:18:48.202Z,50.96
2022-08-03T19:21:18.874Z,50.77
2022-08-03T19:23:47.551Z,50.99
2022-08-03T19:26:30.987Z,51.67
2022-08-03T19:28:58.839Z,52.04
2022-08-03T19:31:30.927Z,52.97
2022-08-03T19:34:02.098Z,53.23
2022-08-03T19:36:29.485Z,53.50
2022-08-03T19:38:56.830Z,53.43
2022-08-03T19:41:31.139Z,53.60
2022-08-03T19:44:20.186Z,54.06
2022-08-03T19:46:53.410Z,54.23
2022-08-03T19:49:57.050Z,54.32
2022-08-03T19:52:20.892Z,54.50
2022-08-03T19:54:55.306Z,54.77
2022-08-03T19:57:28.695Z,55.69
2022-08-03T19:59:57.021Z,55.78
2022-08-03T20:02:26.654Z,55.71
2022-08-03T20:04:59.648Z,55.78
2022-08-03T20:07:28.388Z,56.16
2022-08-03T20:09:56.584Z,56.25
2022-08-03T20:12:28.137Z,56.31
2022-08-03T20:14:59.221Z,56.39
2022-08-03T20:17:54.498Z,56.15
2022-08-03T20:20:14.955Z,56.56
2022-08-03T20:25:38.680Z,56.74
2022-08-03T20:28:14.961Z,56.40
2022-08-03T20:30:44.035Z,56.89
2022-08-03T20:33:18.663Z,56.71
2022-08-03T20:35:48.838Z,56.29
2022-08-03T20:38:17.925Z,56.37
2022-08-03T20:40:46.772Z,56.13
2022-08-03T20:43:14.878Z,56.78
2022-08-03T20:45:59.651Z,56.84
2022-08-03T20:48:29.024Z,56.79
2022-08-03T20:50:56.657Z,56.97
2022-08-03T20:53:41.291Z,57.47
2022-08-03T20:56:10.719Z,57.48
2022-08-03T20:58:42.771Z,57.82
2022-08-03T21:01:18.096Z,57.59
2022-08-03T21:06:53.412Z,58.11
2022-08-03T21:09:23.046Z,57.99
2022-08-03T21:11:51.693Z,58.14
2022-08-03T21:13:03.879Z,56.66
2022-08-03T21:13:12.285Z,57.89
2022-08-03T21:14:26.049Z,58.56
2022-08-03T21:16:53.243Z,58.17
2022-08-03T21:19:21.630Z,58.31
2022-08-03T21:21:52.020Z,58.44
2022-08-03T21:24:19.867Z,58.78
2022-08-03T21:26:47.433Z,58.62
2022-08-03T21:29:14.621Z,58.59
2022-08-03T21:31:41.785Z,58.87
2022-08-03T21:34:08.707Z,59.04
2022-08-03T21:36:37.244Z,59.02
2022-08-03T21:39:06.175Z,59.41
2022-08-03T21:41:33.266Z,59.70
2022-08-03T21:44:01.002Z,59.61
2022-08-03T21:46:34.489Z,59.68
2022-08-03T21:50:04.515Z,59.76
2022-08-03T21:51:51.005Z,59.94
2022-08-03T21:54:19.562Z,60.10
2022-08-03T21:56:47.675Z,60.11
2022-08-03T21:59:19.910Z,60.40
2022-08-03T22:01:49.342Z,60.11
2022-08-03T22:04:42.690Z,60.54
2022-08-03T22:07:08.174Z,61.07
2022-08-03T22:09:36.000Z,60.94
2022-08-03T22:12:03.499Z,60.91
2022-08-03T22:14:32.609Z,61.18
2022-08-03T22:17:00.166Z,61.36
2022-08-03T22:19:27.093Z,61.59
2022-08-03T22:21:54.540Z,61.70
2022-08-03T22:24:24.012Z,61.36
2022-08-03T22:27:20.191Z,61.72
2022-08-03T22:29:47.629Z,62.15
2022-08-03T22:32:14.661Z,62.13
2022-08-03T22:34:41.963Z,62.13
2022-08-03T22:37:09.001Z,62.28
2022-08-03T22:39:36.994Z,62.03
2022-08-03T22:42:04.261Z,61.93
2022-08-03T22:44:31.246Z,62.06
2022-08-03T22:46:58.436Z,62.27
2022-08-03T22:49:25.412Z,62.13
2022-08-03T22:51:52.459Z,61.87
2022-08-03T22:54:21.434Z,62.06
2022-08-03T22:56:49.779Z,62.02
2022-08-03T22:59:40.370Z,61.61
2022-08-03T23:02:20.895Z,61.89
2022-08-03T23:04:53.885Z,62.23
2022-08-03T23:07:26.883Z,62.05
2022-08-03T23:09:53.816Z,61.96
2022-08-03T23:12:23.198Z,62.09
2022-08-03T23:14:56.008Z,62.50
2022-08-03T23:17:24.151Z,62.21
2022-08-03T23:19:52.695Z,62.65
2022-08-03T23:22:29.368Z,62.93
2022-08-03T23:24:59.016Z,62.63
2022-08-03T23:27:27.406Z,63.08
2022-08-03T23:29:54.503Z,63.15
2022-08-03T23:32:21.591Z,63.06
2022-08-03T23:35:07.078Z,63.62
2022-08-03T23:37:34.076Z,63.37
2022-08-03T23:40:25.934Z,63.45
2022-08-03T23:42:52.921Z,63.57
2022-08-03T23:45:20.281Z,63.66
2022-08-03T23:47:48.110Z,63.80
2022-08-03T23:50:15.186Z,63.69
2022-08-03T23:52:48.380Z,63.54
2022-08-03T23:55:23.021Z,63.31
2022-08-03T23:58:01.968Z,63.44
